sensor_id;sensor_type;location;lat;lon;timestamp;P1;durP1;ratioP1;P2;durP2;ratioP2
51724;SDS011;37801;53.224;6.552;2022-08-07T00:00:47;7.07;;;5.40;;
51724;SDS011;37801;53.224;6.552;2022-08-07T00:03:13;7.97;;;5.72;;
51724;SDS011;37801;53.224;6.552;2022-08-07T00:05:40;9.35;;;5.45;;
51724;SDS011;37801;53.224;6.552;2022-08-07T00:08:06;8.93;;;5.13;;
51724;SDS011;37801;53.224;6.552;2022-08-07T00:10:32;7.88;;;5.53;;
51724;SDS011;37801;53.224;6.552;2022-08-07T00:12:58;10.00;;;5.90;;
51724;SDS011;37801;53.224;6.552;2022-08-07T00:15:27;7.65;;;5.18;;
51724;SDS011;37801;53.224;6.552;2022-08-07T00:17:53;6.70;;;5.13;;
51724;SDS011;37801;53.224;6.552;2022-08-07T00:20:19;7.97;;;5.28;;
51724;SDS011;37801;53.224;6.552;2022-08-07T00:22:45;7.25;;;5.00;;
51724;SDS011;37801;53.224;6.552;2022-08-07T00:25:10;8.43;;;5.18;;
51724;SDS011;37801;53.224;6.552;2022-08-07T00:27:36;7.43;;;4.63;;
51724;SDS011;37801;53.224;6.552;2022-08-07T00:30:05;6.65;;;5.03;;
51724;SDS011;37801;53.224;6.552;2022-08-07T00:32:31;6.78;;;4.68;;
51724;SDS011;37801;53.224;6.552;2022-08-07T00:34:57;6.65;;;4.78;;
51724;SDS011;37801;53.224;6.552;2022-08-07T00:37:23;8.55;;;5.13;;
51724;SDS011;37801;53.224;6.552;2022-08-07T00:39:50;6.97;;;4.78;;
51724;SDS011;37801;53.224;6.552;2022-08-07T00:42:18;6.65;;;5.00;;
51724;SDS011;37801;53.224;6.552;2022-08-07T00:44:45;6.13;;;4.72;;
51724;SDS011;37801;53.224;6.552;2022-08-07T00:47:11;6.45;;;4.80;;
51724;SDS011;37801;53.224;6.552;2022-08-07T00:49:37;7.32;;;5.10;;
51724;SDS011;37801;53.224;6.552;2022-08-07T00:52:06;6.55;;;4.68;;
51724;SDS011;37801;53.224;6.552;2022-08-07T00:54:33;6.45;;;4.32;;
51724;SDS011;37801;53.224;6.552;2022-08-07T00:56:59;6.68;;;4.43;;
51724;SDS011;37801;53.224;6.552;2022-08-07T00:59:25;6.40;;;4.05;;
51724;SDS011;37801;53.224;6.552;2022-08-07T01:01:51;7.05;;;4.53;;
51724;SDS011;37801;53.224;6.552;2022-08-07T01:04:17;6.72;;;4.53;;
51724;SDS011;37801;53.224;6.552;2022-08-07T01:06:44;6.55;;;4.70;;
51724;SDS011;37801;53.224;6.552;2022-08-07T01:09:10;7.40;;;4.72;;
51724;SDS011;37801;53.224;6.552;2022-08-07T01:11:36;6.80;;;5.03;;
51724;SDS011;37801;53.224;6.552;2022-08-07T01:14:03;6.88;;;4.80;;
51724;SDS011;37801;53.224;6.552;2022-08-07T01:16:29;8.90;;;5.00;;
51724;SDS011;37801;53.224;6.552;2022-08-07T01:18:56;7.03;;;4.53;;
51724;SDS011;37801;53.224;6.552;2022-08-07T01:21:22;7.57;;;4.68;;
51724;SDS011;37801;53.224;6.552;2022-08-07T01:23:50;6.32;;;4.57;;
51724;SDS011;37801;53.224;6.552;2022-08-07T01:26:17;7.30;;;5.07;;
51724;SDS011;37801;53.224;6.552;2022-08-07T01:28:45;6.50;;;4.88;;
51724;SDS011;37801;53.224;6.552;2022-08-07T01:31:13;10.15;;;4.80;;
51724;SDS011;37801;53.224;6.552;2022-08-07T01:33:42;6.35;;;4.72;;
51724;SDS011;37801;53.224;6.552;2022-08-07T01:36:07;6.18;;;4.68;;
51724;SDS011;37801;53.224;6.552;2022-08-07T01:38:35;6.07;;;4.50;;
51724;SDS011;37801;53.224;6.552;2022-08-07T01:41:02;6.55;;;4.55;;
51724;SDS011;37801;53.224;6.552;2022-08-07T01:43:29;7.00;;;4.88;;
51724;SDS011;37801;53.224;6.552;2022-08-07T01:45:56;5.90;;;4.43;;
51724;SDS011;37801;53.224;6.552;2022-08-07T01:48:22;6.93;;;4.50;;
51724;SDS011;37801;53.224;6.552;2022-08-07T01:50:51;6.35;;;4.50;;
51724;SDS011;37801;53.224;6.552;2022-08-07T01:53:24;6.07;;;4.43;;
51724;SDS011;37801;53.224;6.552;2022-08-07T01:55:54;6.00;;;4.50;;
51724;SDS011;37801;53.224;6.552;2022-08-07T01:58:35;6.32;;;4.25;;
51724;SDS011;37801;53.224;6.552;2022-08-07T02:01:18;7.17;;;3.83;;
51724;SDS011;37801;53.224;6.552;2022-08-07T02:03:52;6.00;;;4.35;;
51724;SDS011;37801;53.224;6.552;2022-08-07T02:06:26;6.93;;;4.43;;
51724;SDS011;37801;53.224;6.552;2022-08-07T02:08:54;6.25;;;4.55;;
51724;SDS011;37801;53.224;6.552;2022-08-07T02:11:24;4.88;;;3.92;;
51724;SDS011;37801;53.224;6.552;2022-08-07T02:13:50;6.93;;;4.18;;
51724;SDS011;37801;53.224;6.552;2022-08-07T02:16:18;6.25;;;4.72;;
51724;SDS011;37801;53.224;6.552;2022-08-07T02:18:46;6.18;;;4.47;;
51724;SDS011;37801;53.224;6.552;2022-08-07T02:21:14;5.63;;;4.13;;
51724;SDS011;37801;53.224;6.552;2022-08-07T02:23:41;7.03;;;4.30;;
51724;SDS011;37801;53.224;6.552;2022-08-07T02:26:08;6.20;;;4.35;;
51724;SDS011;37801;53.224;6.552;2022-08-07T02:28:35;5.65;;;4.03;;
51724;SDS011;37801;53.224;6.552;2022-08-07T02:31:02;7.43;;;4.03;;
51724;SDS011;37801;53.224;6.552;2022-08-07T02:33:30;6.18;;;4.47;;
51724;SDS011;37801;53.224;6.552;2022-08-07T02:35:57;5.13;;;4.00;;
51724;SDS011;37801;53.224;6.552;2022-08-07T02:38:28;6.47;;;4.45;;
51724;SDS011;37801;53.224;6.552;2022-08-07T02:40:59;5.63;;;4.22;;
51724;SDS011;37801;53.224;6.552;2022-08-07T02:43:26;6.68;;;4.15;;
51724;SDS011;37801;53.224;6.552;2022-08-07T02:45:53;5.55;;;4.60;;
51724;SDS011;37801;53.224;6.552;2022-08-07T02:48:22;5.45;;;3.90;;
51724;SDS011;37801;53.224;6.552;2022-08-07T02:50:50;7.15;;;4.57;;
51724;SDS011;37801;53.224;6.552;2022-08-07T02:53:23;6.35;;;4.22;;
51724;SDS011;37801;53.224;6.552;2022-08-07T02:55:55;6.25;;;4.55;;
51724;SDS011;37801;53.224;6.552;2022-08-07T02:58:23;6.20;;;3.60;;
51724;SDS011;37801;53.224;6.552;2022-08-07T03:00:51;7.72;;;4.72;;
51724;SDS011;37801;53.224;6.552;2022-08-07T03:03:20;6.40;;;4.13;;
51724;SDS011;37801;53.224;6.552;2022-08-07T03:05:48;5.85;;;4.20;;
51724;SDS011;37801;53.224;6.552;2022-08-07T03:08:16;5.93;;;4.07;;
51724;SDS011;37801;53.224;6.552;2022-08-07T03:10:42;6.15;;;4.28;;
51724;SDS011;37801;53.224;6.552;2022-08-07T03:13:10;6.68;;;4.03;;
51724;SDS011;37801;53.224;6.552;2022-08-07T03:15:37;5.63;;;3.90;;
51724;SDS011;37801;53.224;6.552;2022-08-07T03:18:04;5.68;;;4.00;;
51724;SDS011;37801;53.224;6.552;2022-08-07T03:20:30;5.55;;;4.25;;
51724;SDS011;37801;53.224;6.552;2022-08-07T03:22:56;6.72;;;3.95;;
51724;SDS011;37801;53.224;6.552;2022-08-07T03:25:24;7.15;;;4.05;;
51724;SDS011;37801;53.224;6.552;2022-08-07T03:27:51;4.78;;;3.53;;
51724;SDS011;37801;53.224;6.552;2022-08-07T03:30:19;5.65;;;3.78;;
51724;SDS011;37801;53.224;6.552;2022-08-07T03:32:47;6.82;;;4.20;;
51724;SDS011;37801;53.224;6.552;2022-08-07T03:35:16;6.38;;;3.80;;
51724;SDS011;37801;53.224;6.552;2022-08-07T03:37:47;6.68;;;4.07;;
51724;SDS011;37801;53.224;6.552;2022-08-07T03:40:17;5.22;;;3.70;;
51724;SDS011;37801;53.224;6.552;2022-08-07T03:42:44;5.07;;;3.65;;
51724;SDS011;37801;53.224;6.552;2022-08-07T03:45:10;7.38;;;4.38;;
51724;SDS011;37801;53.224;6.552;2022-08-07T03:47:37;6.88;;;3.83;;
51724;SDS011;37801;53.224;6.552;2022-08-07T03:50:03;6.47;;;3.67;;
51724;SDS011;37801;53.224;6.552;2022-08-07T03:52:29;6.55;;;4.30;;
51724;SDS011;37801;53.224;6.552;2022-08-07T03:54:59;7.88;;;4.30;;
51724;SDS011;37801;53.224;6.552;2022-08-07T03:57:26;6.65;;;3.88;;
51724;SDS011;37801;53.224;6.552;2022-08-07T03:59:53;10.23;;;4.53;;
51724;SDS011;37801;53.224;6.552;2022-08-07T04:02:20;6.95;;;4.20;;
51724;SDS011;37801;53.224;6.552;2022-08-07T04:04:48;5.72;;;3.95;;
51724;SDS011;37801;53.224;6.552;2022-08-07T04:07:17;5.68;;;3.78;;
51724;SDS011;37801;53.224;6.552;2022-08-07T04:09:47;7.05;;;4.25;;
51724;SDS011;37801;53.224;6.552;2022-08-07T04:12:14;6.30;;;4.50;;
51724;SDS011;37801;53.224;6.552;2022-08-07T04:14:43;6.50;;;4.50;;
51724;SDS011;37801;53.224;6.552;2022-08-07T04:17:09;6.07;;;4.28;;
51724;SDS011;37801;53.224;6.552;2022-08-07T04:19:38;6.13;;;4.25;;
51724;SDS011;37801;53.224;6.552;2022-08-07T04:22:04;5.63;;;3.85;;
51724;SDS011;37801;53.224;6.552;2022-08-07T04:24:30;6.10;;;4.60;;
51724;SDS011;37801;53.224;6.552;2022-08-07T04:26:57;5.47;;;3.80;;
51724;SDS011;37801;53.224;6.552;2022-08-07T04:29:23;7.22;;;4.43;;
51724;SDS011;37801;53.224;6.552;2022-08-07T04:31:49;6.05;;;4.20;;
51724;SDS011;37801;53.224;6.552;2022-08-07T04:34:15;7.35;;;4.43;;
51724;SDS011;37801;53.224;6.552;2022-08-07T04:36:42;5.65;;;4.00;;
51724;SDS011;37801;53.224;6.552;2022-08-07T04:39:08;5.47;;;3.58;;
51724;SDS011;37801;53.224;6.552;2022-08-07T04:41:33;5.88;;;4.18;;
51724;SDS011;37801;53.224;6.552;2022-08-07T04:44:00;6.43;;;3.75;;
51724;SDS011;37801;53.224;6.552;2022-08-07T04:46:35;5.57;;;4.15;;
51724;SDS011;37801;53.224;6.552;2022-08-07T04:49:19;5.10;;;3.08;;
51724;SDS011;37801;53.224;6.552;2022-08-07T04:52:09;5.13;;;3.92;;
51724;SDS011;37801;53.224;6.552;2022-08-07T05:02:27;6.43;;;4.00;;
51724;SDS011;37801;53.224;6.552;2022-08-07T05:05:08;5.43;;;3.80;;
51724;SDS011;37801;53.224;6.552;2022-08-07T05:10:48;5.47;;;3.53;;
51724;SDS011;37801;53.224;6.552;2022-08-07T05:13:18;6.25;;;3.85;;
51724;SDS011;37801;53.224;6.552;2022-08-07T05:15:52;4.90;;;3.67;;
51724;SDS011;37801;53.224;6.552;2022-08-07T05:18:19;4.63;;;3.47;;
51724;SDS011;37801;53.224;6.552;2022-08-07T05:20:49;7.10;;;3.72;;
51724;SDS011;37801;53.224;6.552;2022-08-07T05:23:24;5.35;;;3.65;;
51724;SDS011;37801;53.224;6.552;2022-08-07T05:25:56;5.47;;;3.55;;
51724;SDS011;37801;53.224;6.552;2022-08-07T05:28:23;6.20;;;3.92;;
51724;SDS011;37801;53.224;6.552;2022-08-07T05:30:51;4.40;;;3.28;;
51724;SDS011;37801;53.224;6.552;2022-08-07T05:33:20;5.53;;;3.65;;
51724;SDS011;37801;53.224;6.552;2022-08-07T05:35:47;4.50;;;3.35;;
51724;SDS011;37801;53.224;6.552;2022-08-07T05:38:15;7.38;;;3.50;;
51724;SDS011;37801;53.224;6.552;2022-08-07T05:40:41;5.10;;;3.65;;
51724;SDS011;37801;53.224;6.552;2022-08-07T05:43:08;6.28;;;3.55;;
51724;SDS011;37801;53.224;6.552;2022-08-07T05:45:34;5.00;;;3.55;;
51724;SDS011;37801;53.224;6.552;2022-08-07T05:48:00;4.97;;;3.60;;
51724;SDS011;37801;53.224;6.552;2022-08-07T05:50:28;5.22;;;3.58;;
51724;SDS011;37801;53.224;6.552;2022-08-07T05:52:55;5.00;;;3.42;;
51724;SDS011;37801;53.224;6.552;2022-08-07T05:55:21;6.03;;;3.47;;
51724;SDS011;37801;53.224;6.552;2022-08-07T05:57:48;5.20;;;3.22;;
51724;SDS011;37801;53.224;6.552;2022-08-07T06:00:15;5.38;;;3.35;;
51724;SDS011;37801;53.224;6.552;2022-08-07T06:02:42;4.75;;;3.45;;
51724;SDS011;37801;53.224;6.552;2022-08-07T06:05:13;4.32;;;3.25;;
51724;SDS011;37801;53.224;6.552;2022-08-07T06:07:39;5.65;;;3.60;;
51724;SDS011;37801;53.224;6.552;2022-08-07T06:10:07;4.82;;;3.38;;
51724;SDS011;37801;53.224;6.552;2022-08-07T06:12:34;5.82;;;3.30;;
51724;SDS011;37801;53.224;6.552;2022-08-07T06:15:00;6.03;;;3.28;;
51724;SDS011;37801;53.224;6.552;2022-08-07T06:17:26;4.85;;;3.22;;
51724;SDS011;37801;53.224;6.552;2022-08-07T06:19:52;5.93;;;3.40;;
51724;SDS011;37801;53.224;6.552;2022-08-07T06:22:19;5.75;;;3.30;;
51724;SDS011;37801;53.224;6.552;2022-08-07T06:24:46;5.25;;;3.47;;
51724;SDS011;37801;53.224;6.552;2022-08-07T06:27:19;6.30;;;3.50;;
51724;SDS011;37801;53.224;6.552;2022-08-07T06:29:46;5.45;;;3.40;;
51724;SDS011;37801;53.224;6.552;2022-08-07T06:32:11;4.95;;;3.53;;
51724;SDS011;37801;53.224;6.552;2022-08-07T06:34:37;4.72;;;2.90;;
51724;SDS011;37801;53.224;6.552;2022-08-07T06:37:03;4.25;;;2.88;;
51724;SDS011;37801;53.224;6.552;2022-08-07T06:39:29;4.30;;;2.95;;
51724;SDS011;37801;53.224;6.552;2022-08-07T06:42:06;5.05;;;3.20;;
51724;SDS011;37801;53.224;6.552;2022-08-07T06:44:35;4.90;;;2.97;;
51724;SDS011;37801;53.224;6.552;2022-08-07T06:47:03;4.30;;;2.90;;
51724;SDS011;37801;53.224;6.552;2022-08-07T06:49:29;4.20;;;2.88;;
51724;SDS011;37801;53.224;6.552;2022-08-07T06:51:55;4.03;;;3.20;;
51724;SDS011;37801;53.224;6.552;2022-08-07T06:54:23;4.78;;;3.08;;
51724;SDS011;37801;53.224;6.552;2022-08-07T06:56:50;4.57;;;3.30;;
51724;SDS011;37801;53.224;6.552;2022-08-07T06:59:19;3.85;;;3.08;;
51724;SDS011;37801;53.224;6.552;2022-08-07T07:01:55;5.43;;;2.83;;
51724;SDS011;37801;53.224;6.552;2022-08-07T07:04:22;5.35;;;3.47;;
51724;SDS011;37801;53.224;6.552;2022-08-07T07:06:49;3.50;;;2.70;;
51724;SDS011;37801;53.224;6.552;2022-08-07T07:14:35;3.47;;;2.80;;
51724;SDS011;37801;53.224;6.552;2022-08-07T07:17:07;3.85;;;2.35;;
51724;SDS011;37801;53.224;6.552;2022-08-07T07:19:39;4.13;;;2.88;;
51724;SDS011;37801;53.224;6.552;2022-08-07T07:22:10;4.28;;;2.65;;
51724;SDS011;37801;53.224;6.552;2022-08-07T07:24:36;7.25;;;2.95;;
51724;SDS011;37801;53.224;6.552;2022-08-07T07:27:03;3.80;;;2.80;;
51724;SDS011;37801;53.224;6.552;2022-08-07T07:29:32;4.03;;;2.55;;
51724;SDS011;37801;53.224;6.552;2022-08-07T07:32:02;3.90;;;2.50;;
51724;SDS011;37801;53.224;6.552;2022-08-07T07:34:32;3.70;;;2.20;;
51724;SDS011;37801;53.224;6.552;2022-08-07T07:37:03;4.47;;;2.60;;
51724;SDS011;37801;53.224;6.552;2022-08-07T07:39:30;3.83;;;2.58;;
51724;SDS011;37801;53.224;6.552;2022-08-07T07:41:57;4.03;;;2.90;;
51724;SDS011;37801;53.224;6.552;2022-08-07T07:44:25;3.92;;;2.53;;
51724;SDS011;37801;53.224;6.552;2022-08-07T07:46:53;4.32;;;3.13;;
51724;SDS011;37801;53.224;6.552;2022-08-07T07:49:21;6.13;;;3.00;;
51724;SDS011;37801;53.224;6.552;2022-08-07T07:51:49;6.15;;;3.78;;
51724;SDS011;37801;53.224;6.552;2022-08-07T07:54:18;5.15;;;3.30;;
51724;SDS011;37801;53.224;6.552;2022-08-07T07:56:45;4.68;;;3.50;;
51724;SDS011;37801;53.224;6.552;2022-08-07T07:59:12;3.90;;;3.22;;
51724;SDS011;37801;53.224;6.552;2022-08-07T08:01:41;5.43;;;3.97;;
51724;SDS011;37801;53.224;6.552;2022-08-07T08:04:09;4.53;;;3.38;;
51724;SDS011;37801;53.224;6.552;2022-08-07T08:06:37;4.95;;;3.85;;
51724;SDS011;37801;53.224;6.552;2022-08-07T08:09:05;4.28;;;3.35;;
51724;SDS011;37801;53.224;6.552;2022-08-07T08:11:32;5.47;;;3.88;;
51724;SDS011;37801;53.224;6.552;2022-08-07T08:13:59;4.72;;;3.75;;
51724;SDS011;37801;53.224;6.552;2022-08-07T08:16:37;5.40;;;3.30;;
51724;SDS011;37801;53.224;6.552;2022-08-07T08:19:08;4.60;;;3.90;;
51724;SDS011;37801;53.224;6.552;2022-08-07T08:21:38;5.88;;;3.78;;
51724;SDS011;37801;53.224;6.552;2022-08-07T08:24:25;5.25;;;3.65;;
51724;SDS011;37801;53.224;6.552;2022-08-07T08:27:13;4.75;;;3.65;;
51724;SDS011;37801;53.224;6.552;2022-08-07T08:29:48;5.50;;;3.53;;
51724;SDS011;37801;53.224;6.552;2022-08-07T08:32:17;4.70;;;3.38;;
51724;SDS011;37801;53.224;6.552;2022-08-07T08:34:46;4.90;;;3.70;;
51724;SDS011;37801;53.224;6.552;2022-08-07T08:37:15;5.90;;;3.55;;
51724;SDS011;37801;53.224;6.552;2022-08-07T08:39:46;5.80;;;3.97;;
51724;SDS011;37801;53.224;6.552;2022-08-07T08:47:57;4.93;;;3.47;;
51724;SDS011;37801;53.224;6.552;2022-08-07T08:51:15;3.95;;;3.00;;
51724;SDS011;37801;53.224;6.552;2022-08-07T08:56:25;5.10;;;3.60;;
51724;SDS011;37801;53.224;6.552;2022-08-07T09:07:13;5.13;;;3.72;;
51724;SDS011;37801;53.224;6.552;2022-08-07T09:09:59;5.88;;;3.25;;
51724;SDS011;37801;53.224;6.552;2022-08-07T09:18:12;4.57;;;3.08;;
51724;SDS011;37801;53.224;6.552;2022-08-07T09:24:25;4.55;;;2.90;;
51724;SDS011;37801;53.224;6.552;2022-08-07T09:32:11;5.05;;;3.00;;
51724;SDS011;37801;53.224;6.552;2022-08-07T09:43:35;3.25;;;2.30;;
51724;SDS011;37801;53.224;6.552;2022-08-07T09:52:22;4.90;;;2.63;;
51724;SDS011;37801;53.224;6.552;2022-08-07T09:54:53;3.75;;;2.47;;
51724;SDS011;37801;53.224;6.552;2022-08-07T10:00:18;3.72;;;2.83;;
51724;SDS011;37801;53.224;6.552;2022-08-07T10:11:03;4.45;;;2.65;;
51724;SDS011;37801;53.224;6.552;2022-08-07T10:14:35;4.47;;;2.47;;
51724;SDS011;37801;53.224;6.552;2022-08-07T10:19:23;3.78;;;2.40;;
51724;SDS011;37801;53.224;6.552;2022-08-07T10:28:27;2.80;;;1.90;;
51724;SDS011;37801;53.224;6.552;2022-08-07T10:33:42;4.68;;;2.28;;
51724;SDS011;37801;53.224;6.552;2022-08-07T10:39:24;3.55;;;1.90;;
51724;SDS011;37801;53.224;6.552;2022-08-07T10:42:37;2.70;;;1.73;;
51724;SDS011;37801;53.224;6.552;2022-08-07T10:45:44;3.22;;;2.10;;
51724;SDS011;37801;53.224;6.552;2022-08-07T10:47:58;3.65;;;1.80;;
51724;SDS011;37801;53.224;6.552;2022-08-07T10:50:48;3.15;;;1.98;;
51724;SDS011;37801;53.224;6.552;2022-08-07T10:56:26;3.08;;;2.10;;
51724;SDS011;37801;53.224;6.552;2022-08-07T11:09:48;3.50;;;2.00;;
51724;SDS011;37801;53.224;6.552;2022-08-07T11:12:25;2.72;;;1.80;;
51724;SDS011;37801;53.224;6.552;2022-08-07T11:15:01;2.28;;;1.75;;
51724;SDS011;37801;53.224;6.552;2022-08-07T11:17:37;2.92;;;1.80;;
51724;SDS011;37801;53.224;6.552;2022-08-07T11:20:13;2.33;;;1.67;;
51724;SDS011;37801;53.224;6.552;2022-08-07T11:23:02;2.88;;;1.90;;
51724;SDS011;37801;53.224;6.552;2022-08-07T11:25:43;2.30;;;1.60;;
51724;SDS011;37801;53.224;6.552;2022-08-07T11:28:34;2.95;;;1.80;;
51724;SDS011;37801;53.224;6.552;2022-08-07T11:31:06;2.47;;;1.98;;
51724;SDS011;37801;53.224;6.552;2022-08-07T11:33:48;2.97;;;2.08;;
51724;SDS011;37801;53.224;6.552;2022-08-07T11:39:38;3.55;;;1.90;;
51724;SDS011;37801;53.224;6.552;2022-08-07T11:56:44;2.92;;;2.00;;
51724;SDS011;37801;53.224;6.552;2022-08-07T12:07:17;3.05;;;1.65;;
51724;SDS011;37801;53.224;6.552;2022-08-07T12:09:58;4.75;;;1.70;;
51724;SDS011;37801;53.224;6.552;2022-08-07T12:15:21;2.03;;;1.40;;
51724;SDS011;37801;53.224;6.552;2022-08-07T12:17:56;3.20;;;1.60;;
51724;SDS011;37801;53.224;6.552;2022-08-07T12:20:51;2.13;;;1.50;;
51724;SDS011;37801;53.224;6.552;2022-08-07T12:25:53;2.58;;;1.70;;
51724;SDS011;37801;53.224;6.552;2022-08-07T12:30:56;2.40;;;1.60;;
51724;SDS011;37801;53.224;6.552;2022-08-07T12:33:28;4.78;;;1.80;;
51724;SDS011;37801;53.224;6.552;2022-08-07T12:35:56;2.55;;;1.50;;
51724;SDS011;37801;53.224;6.552;2022-08-07T12:38:23;3.60;;;2.05;;
51724;SDS011;37801;53.224;6.552;2022-08-07T12:40:50;3.38;;;2.15;;
51724;SDS011;37801;53.224;6.552;2022-08-07T12:43:18;3.08;;;2.13;;
51724;SDS011;37801;53.224;6.552;2022-08-07T12:46:14;3.63;;;2.50;;
51724;SDS011;37801;53.224;6.552;2022-08-07T12:51:27;3.97;;;2.10;;
51724;SDS011;37801;53.224;6.552;2022-08-07T12:54:06;3.17;;;1.88;;
51724;SDS011;37801;53.224;6.552;2022-08-07T12:56:36;3.13;;;1.98;;
51724;SDS011;37801;53.224;6.552;2022-08-07T12:59:06;4.90;;;2.30;;
51724;SDS011;37801;53.224;6.552;2022-08-07T13:15:36;3.20;;;2.43;;
51724;SDS011;37801;53.224;6.552;2022-08-07T13:23:28;4.70;;;2.08;;
51724;SDS011;37801;53.224;6.552;2022-08-07T13:28:57;3.92;;;1.90;;
51724;SDS011;37801;53.224;6.552;2022-08-07T13:31:56;3.78;;;1.70;;
51724;SDS011;37801;53.224;6.552;2022-08-07T13:37:36;3.25;;;1.85;;
51724;SDS011;37801;53.224;6.552;2022-08-07T13:45:19;4.88;;;2.00;;
51724;SDS011;37801;53.224;6.552;2022-08-07T13:47:46;4.38;;;1.50;;
51724;SDS011;37801;53.224;6.552;2022-08-07T13:50:16;3.95;;;1.70;;
51724;SDS011;37801;53.224;6.552;2022-08-07T13:52:46;4.45;;;1.38;;
51724;SDS011;37801;53.224;6.552;2022-08-07T13:55:14;5.18;;;1.50;;
51724;SDS011;37801;53.224;6.552;2022-08-07T13:57:44;3.33;;;1.42;;
51724;SDS011;37801;53.224;6.552;2022-08-07T14:00:13;2.38;;;1.42;;
51724;SDS011;37801;53.224;6.552;2022-08-07T14:02:41;3.45;;;1.45;;
51724;SDS011;37801;53.224;6.552;2022-08-07T14:05:09;3.35;;;1.55;;
51724;SDS011;37801;53.224;6.552;2022-08-07T14:07:41;3.03;;;1.50;;
51724;SDS011;37801;53.224;6.552;2022-08-07T14:10:09;3.38;;;1.40;;
51724;SDS011;37801;53.224;6.552;2022-08-07T14:12:56;3.55;;;1.70;;
51724;SDS011;37801;53.224;6.552;2022-08-07T14:17:56;3.42;;;1.55;;
51724;SDS011;37801;53.224;6.552;2022-08-07T14:20:28;3.10;;;1.50;;
51724;SDS011;37801;53.224;6.552;2022-08-07T14:23:00;3.28;;;1.50;;
51724;SDS011;37801;53.224;6.552;2022-08-07T14:25:31;4.50;;;1.65;;
51724;SDS011;37801;53.224;6.552;2022-08-07T14:28:01;3.17;;;1.67;;
51724;SDS011;37801;53.224;6.552;2022-08-07T14:30:29;3.05;;;1.40;;
51724;SDS011;37801;53.224;6.552;2022-08-07T14:32:58;3.30;;;1.40;;
51724;SDS011;37801;53.224;6.552;2022-08-07T14:35:30;2.70;;;1.35;;
51724;SDS011;37801;53.224;6.552;2022-08-07T14:37:58;3.67;;;1.60;;
51724;SDS011;37801;53.224;6.552;2022-08-07T14:40:25;2.78;;;1.65;;
51724;SDS011;37801;53.224;6.552;2022-08-07T14:45:52;2.90;;;1.55;;
51724;SDS011;37801;53.224;6.552;2022-08-07T14:48:28;2.72;;;1.42;;
51724;SDS011;37801;53.224;6.552;2022-08-07T14:51:00;2.10;;;1.45;;
51724;SDS011;37801;53.224;6.552;2022-08-07T14:53:31;2.80;;;1.50;;
51724;SDS011;37801;53.224;6.552;2022-08-07T14:56:03;3.13;;;1.67;;
51724;SDS011;37801;53.224;6.552;2022-08-07T14:58:34;3.65;;;1.58;;
51724;SDS011;37801;53.224;6.552;2022-08-07T15:01:03;2.50;;;1.38;;
51724;SDS011;37801;53.224;6.552;2022-08-07T15:03:31;4.18;;;1.90;;
51724;SDS011;37801;53.224;6.552;2022-08-07T15:05:59;2.78;;;1.67;;
51724;SDS011;37801;53.224;6.552;2022-08-07T15:08:44;3.17;;;1.80;;
51724;SDS011;37801;53.224;6.552;2022-08-07T15:11:17;5.18;;;1.95;;
51724;SDS011;37801;53.224;6.552;2022-08-07T15:13:54;3.42;;;2.00;;
51724;SDS011;37801;53.224;6.552;2022-08-07T15:16:24;5.18;;;2.00;;
51724;SDS011;37801;53.224;6.552;2022-08-07T15:19:16;3.28;;;1.52;;
51724;SDS011;37801;53.224;6.552;2022-08-07T15:21:50;4.47;;;1.73;;
51724;SDS011;37801;53.224;6.552;2022-08-07T15:24:45;3.13;;;1.60;;
51724;SDS011;37801;53.224;6.552;2022-08-07T15:27:21;3.53;;;1.67;;
51724;SDS011;37801;53.224;6.552;2022-08-07T15:29:50;2.42;;;1.60;;
51724;SDS011;37801;53.224;6.552;2022-08-07T15:32:19;2.95;;;1.38;;
51724;SDS011;37801;53.224;6.552;2022-08-07T15:34:50;4.38;;;1.60;;
51724;SDS011;37801;53.224;6.552;2022-08-07T15:37:19;3.38;;;1.65;;
51724;SDS011;37801;53.224;6.552;2022-08-07T15:39:50;3.20;;;1.70;;
51724;SDS011;37801;53.224;6.552;2022-08-07T15:45:07;3.65;;;1.60;;
51724;SDS011;37801;53.224;6.552;2022-08-07T15:47:37;2.72;;;1.58;;
51724;SDS011;37801;53.224;6.552;2022-08-07T15:50:08;3.78;;;1.75;;
51724;SDS011;37801;53.224;6.552;2022-08-07T15:52:36;3.53;;;1.75;;
51724;SDS011;37801;53.224;6.552;2022-08-07T15:55:05;3.80;;;1.73;;
51724;SDS011;37801;53.224;6.552;2022-08-07T15:57:34;5.40;;;1.90;;
51724;SDS011;37801;53.224;6.552;2022-08-07T16:00:01;3.42;;;1.90;;
51724;SDS011;37801;53.224;6.552;2022-08-07T16:02:30;3.63;;;1.80;;
51724;SDS011;37801;53.224;6.552;2022-08-07T16:05:02;5.38;;;1.90;;
51724;SDS011;37801;53.224;6.552;2022-08-07T16:07:38;3.38;;;1.90;;
51724;SDS011;37801;53.224;6.552;2022-08-07T16:15:23;7.55;;;2.33;;
51724;SDS011;37801;53.224;6.552;2022-08-07T16:23:59;5.82;;;2.97;;
51724;SDS011;37801;53.224;6.552;2022-08-07T16:27:08;3.97;;;2.70;;
51724;SDS011;37801;53.224;6.552;2022-08-07T16:32:31;4.80;;;2.58;;
51724;SDS011;37801;53.224;6.552;2022-08-07T17:00:38;5.13;;;2.60;;
51724;SDS011;37801;53.224;6.552;2022-08-07T17:03:17;5.75;;;2.80;;
51724;SDS011;37801;53.224;6.552;2022-08-07T17:08:47;5.15;;;2.47;;
51724;SDS011;37801;53.224;6.552;2022-08-07T17:11:30;5.20;;;2.38;;
51724;SDS011;37801;53.224;6.552;2022-08-07T17:14:05;5.75;;;2.72;;
51724;SDS011;37801;53.224;6.552;2022-08-07T17:16:47;3.95;;;2.15;;
51724;SDS011;37801;53.224;6.552;2022-08-07T17:19:25;5.82;;;2.75;;
51724;SDS011;37801;53.224;6.552;2022-08-07T17:22:01;4.47;;;2.45;;
51724;SDS011;37801;53.224;6.552;2022-08-07T17:27:09;7.78;;;2.30;;
51724;SDS011;37801;53.224;6.552;2022-08-07T17:32:31;4.68;;;1.88;;
51724;SDS011;37801;53.224;6.552;2022-08-07T17:35:06;4.72;;;1.90;;
51724;SDS011;37801;53.224;6.552;2022-08-07T17:37:58;4.25;;;2.03;;
51724;SDS011;37801;53.224;6.552;2022-08-07T17:40:39;3.80;;;1.65;;
51724;SDS011;37801;53.224;6.552;2022-08-07T17:43:19;5.07;;;1.88;;
51724;SDS011;37801;53.224;6.552;2022-08-07T17:45:57;5.85;;;1.75;;
51724;SDS011;37801;53.224;6.552;2022-08-07T17:49:06;5.65;;;1.70;;
51724;SDS011;37801;53.224;6.552;2022-08-07T17:51:51;7.03;;;1.90;;
51724;SDS011;37801;53.224;6.552;2022-08-07T17:57:27;6.80;;;1.75;;
51724;SDS011;37801;53.224;6.552;2022-08-07T18:00:03;3.65;;;1.75;;
51724;SDS011;37801;53.224;6.552;2022-08-07T18:02:41;2.65;;;1.70;;
51724;SDS011;37801;53.224;6.552;2022-08-07T18:05:30;4.43;;;1.85;;
51724;SDS011;37801;53.224;6.552;2022-08-07T18:08:22;3.47;;;1.70;;
51724;SDS011;37801;53.224;6.552;2022-08-07T18:16:23;4.30;;;1.70;;
51724;SDS011;37801;53.224;6.552;2022-08-07T18:18:55;3.90;;;1.73;;
51724;SDS011;37801;53.224;6.552;2022-08-07T18:21:31;4.10;;;1.23;;
51724;SDS011;37801;53.224;6.552;2022-08-07T18:24:00;1.83;;;1.02;;
51724;SDS011;37801;53.224;6.552;2022-08-07T18:29:05;4.15;;;1.60;;
51724;SDS011;37801;53.224;6.552;2022-08-07T18:31:57;2.83;;;1.40;;
51724;SDS011;37801;53.224;6.552;2022-08-07T18:40:12;3.95;;;1.30;;
51724;SDS011;37801;53.224;6.552;2022-08-07T18:42:59;4.53;;;1.30;;
51724;SDS011;37801;53.224;6.552;2022-08-07T18:45:53;5.30;;;1.75;;
51724;SDS011;37801;53.224;6.552;2022-08-07T18:51:04;3.15;;;1.35;;
51724;SDS011;37801;53.224;6.552;2022-08-07T18:59:26;3.42;;;1.40;;
51724;SDS011;37801;53.224;6.552;2022-08-07T19:05:02;2.78;;;1.60;;
51724;SDS011;37801;53.224;6.552;2022-08-07T19:07:41;2.45;;;1.10;;
51724;SDS011;37801;53.224;6.552;2022-08-07T19:10:20;2.33;;;1.15;;
51724;SDS011;37801;53.224;6.552;2022-08-07T19:12:53;3.25;;;1.10;;
51724;SDS011;37801;53.224;6.552;2022-08-07T19:18:11;2.88;;;1.30;;
51724;SDS011;37801;53.224;6.552;2022-08-07T19:23:23;2.60;;;1.20;;
51724;SDS011;37801;53.224;6.552;2022-08-07T19:28:24;2.45;;;1.20;;
51724;SDS011;37801;53.224;6.552;2022-08-07T19:30:56;4.87;;;1.20;;
51724;SDS011;37801;53.224;6.552;2022-08-07T19:33:31;3.85;;;1.10;;
51724;SDS011;37801;53.224;6.552;2022-08-07T19:36:03;1.90;;;1.15;;